sensor_id;sensor_type;location;lat;lon;timestamp;P1;durP1;ratioP1;P2;durP2;ratioP2
50309;SDS011;36207;51.850;21.698;2024-03-23T00:54:56;29.40;;;16.70;;
50309;SDS011;36207;51.850;21.698;2024-03-23T00:57:22;26.60;;;16.60;;
50309;SDS011;36207;51.850;21.698;2024-03-23T00:59:48;25.40;;;16.70;;
50309;SDS011;36207;51.850;21.698;2024-03-23T01:02:14;26.00;;;17.10;;
50309;SDS011;36207;51.850;21.698;2024-03-23T01:04:39;28.40;;;17.70;;
50309;SDS011;36207;51.850;21.698;2024-03-23T01:07:05;29.20;;;17.40;;
50309;SDS011;36207;51.850;21.698;2024-03-23T01:09:31;27.90;;;17.60;;
50309;SDS011;36207;51.850;21.698;2024-03-23T01:11:57;25.60;;;16.80;;
50309;SDS011;36207;51.850;21.698;2024-03-23T01:14:23;28.00;;;17.90;;
50309;SDS011;36207;51.850;21.698;2024-03-23T01:16:49;26.60;;;16.90;;
50309;SDS011;36207;51.850;21.698;2024-03-23T01:19:15;26.30;;;17.20;;
50309;SDS011;36207;51.850;21.698;2024-03-23T01:21:41;28.80;;;17.10;;
50309;SDS011;36207;51.850;21.698;2024-03-23T01:24:08;27.10;;;17.00;;
50309;SDS011;36207;51.850;21.698;2024-03-23T01:26:36;26.50;;;17.20;;
50309;SDS011;36207;51.850;21.698;2024-03-23T01:29:02;28.50;;;17.00;;
50309;SDS011;36207;51.850;21.698;2024-03-23T01:31:28;27.40;;;17.20;;
50309;SDS011;36207;51.850;21.698;2024-03-23T01:33:54;26.70;;;17.10;;
50309;SDS011;36207;51.850;21.698;2024-03-23T01:36:20;25.30;;;16.70;;
50309;SDS011;36207;51.850;21.698;2024-03-23T01:38:46;29.40;;;17.40;;
50309;SDS011;36207;51.850;21.698;2024-03-23T01:41:12;27.80;;;17.70;;
50309;SDS011;36207;51.850;21.698;2024-03-23T01:43:38;30.60;;;17.40;;
50309;SDS011;36207;51.850;21.698;2024-03-23T01:46:04;27.60;;;17.10;;
50309;SDS011;36207;51.850;21.698;2024-03-23T01:48:30;28.90;;;17.20;;
50309;SDS011;36207;51.850;21.698;2024-03-23T01:50:55;28.80;;;17.00;;
50309;SDS011;36207;51.850;21.698;2024-03-23T01:53:21;29.00;;;17.60;;
50309;SDS011;36207;51.850;21.698;2024-03-23T01:55:49;27.30;;;16.90;;
50309;SDS011;36207;51.850;21.698;2024-03-23T01:58:17;29.20;;;17.90;;
50309;SDS011;36207;51.850;21.698;2024-03-23T02:00:43;29.30;;;17.50;;
50309;SDS011;36207;51.850;21.698;2024-03-23T02:03:27;28.50;;;17.00;;
50309;SDS011;36207;51.850;21.698;2024-03-23T02:05:54;26.50;;;16.90;;
50309;SDS011;36207;51.850;21.698;2024-03-23T02:08:21;28.70;;;17.60;;
50309;SDS011;36207;51.850;21.698;2024-03-23T02:10:48;30.70;;;18.30;;
50309;SDS011;36207;51.850;21.698;2024-03-23T02:13:15;31.20;;;17.80;;
50309;SDS011;36207;51.850;21.698;2024-03-23T02:15:41;30.90;;;18.40;;
50309;SDS011;36207;51.850;21.698;2024-03-23T02:18:08;26.50;;;16.60;;
50309;SDS011;36207;51.850;21.698;2024-03-23T02:20:35;30.40;;;17.80;;
50309;SDS011;36207;51.850;21.698;2024-03-23T02:23:02;26.80;;;17.70;;
50309;SDS011;36207;51.850;21.698;2024-03-23T02:25:28;30.40;;;18.50;;
50309;SDS011;36207;51.850;21.698;2024-03-23T02:27:54;28.70;;;17.70;;
50309;SDS011;36207;51.850;21.698;2024-03-23T02:30:20;31.40;;;18.20;;
50309;SDS011;36207;51.850;21.698;2024-03-23T02:32:46;30.00;;;19.10;;
50309;SDS011;36207;51.850;21.698;2024-03-23T02:35:12;32.20;;;18.10;;
50309;SDS011;36207;51.850;21.698;2024-03-23T02:37:38;29.80;;;18.00;;
50309;SDS011;36207;51.850;21.698;2024-03-23T02:40:04;30.20;;;19.10;;
50309;SDS011;36207;51.850;21.698;2024-03-23T02:42:30;31.70;;;18.90;;
50309;SDS011;36207;51.850;21.698;2024-03-23T02:44:58;31.30;;;18.40;;
50309;SDS011;36207;51.850;21.698;2024-03-23T02:47:25;29.20;;;18.20;;
50309;SDS011;36207;51.850;21.698;2024-03-23T02:49:51;28.90;;;18.30;;
50309;SDS011;36207;51.850;21.698;2024-03-23T02:52:16;29.20;;;18.20;;
50309;SDS011;36207;51.850;21.698;2024-03-23T02:54:43;30.90;;;19.20;;
50309;SDS011;36207;51.850;21.698;2024-03-23T02:57:11;30.20;;;18.60;;
50309;SDS011;36207;51.850;21.698;2024-03-23T02:59:37;31.60;;;19.60;;
50309;SDS011;36207;51.850;21.698;2024-03-23T03:02:02;30.70;;;19.00;;
50309;SDS011;36207;51.850;21.698;2024-03-23T03:04:30;31.50;;;18.00;;
50309;SDS011;36207;51.850;21.698;2024-03-23T03:06:56;31.90;;;19.10;;
50309;SDS011;36207;51.850;21.698;2024-03-23T03:09:22;31.90;;;19.70;;
50309;SDS011;36207;51.850;21.698;2024-03-23T03:11:48;30.90;;;19.50;;
50309;SDS011;36207;51.850;21.698;2024-03-23T03:14:19;32.00;;;19.10;;
50309;SDS011;36207;51.850;21.698;2024-03-23T03:16:45;33.20;;;19.90;;
50309;SDS011;36207;51.850;21.698;2024-03-23T03:19:11;31.90;;;19.60;;
50309;SDS011;36207;51.850;21.698;2024-03-23T03:21:37;33.10;;;19.40;;
50309;SDS011;36207;51.850;21.698;2024-03-23T03:24:03;33.60;;;20.30;;
50309;SDS011;36207;51.850;21.698;2024-03-23T03:26:31;32.90;;;19.60;;
50309;SDS011;36207;51.850;21.698;2024-03-23T03:28:57;32.60;;;20.00;;
50309;SDS011;36207;51.850;21.698;2024-03-23T03:31:23;34.80;;;20.80;;
50309;SDS011;36207;51.850;21.698;2024-03-23T03:33:49;32.40;;;20.40;;
50309;SDS011;36207;51.850;21.698;2024-03-23T03:36:16;32.00;;;19.60;;
50309;SDS011;36207;51.850;21.698;2024-03-23T03:38:42;33.70;;;20.10;;
50309;SDS011;36207;51.850;21.698;2024-03-23T03:41:08;34.90;;;20.00;;
50309;SDS011;36207;51.850;21.698;2024-03-23T03:43:34;34.60;;;20.40;;
50309;SDS011;36207;51.850;21.698;2024-03-23T03:46:00;31.40;;;19.70;;
50309;SDS011;36207;51.850;21.698;2024-03-23T03:48:26;34.40;;;20.20;;
50309;SDS011;36207;51.850;21.698;2024-03-23T03:50:52;33.10;;;20.80;;
50309;SDS011;36207;51.850;21.698;2024-03-23T03:53:19;35.50;;;19.80;;
50309;SDS011;36207;51.850;21.698;2024-03-23T03:55:45;34.80;;;21.10;;
50309;SDS011;36207;51.850;21.698;2024-03-23T03:58:12;33.10;;;20.70;;
50309;SDS011;36207;51.850;21.698;2024-03-23T04:00:37;37.10;;;20.90;;
50309;SDS011;36207;51.850;21.698;2024-03-23T04:03:03;33.20;;;20.30;;
50309;SDS011;36207;51.850;21.698;2024-03-23T04:05:30;35.50;;;21.00;;
50309;SDS011;36207;51.850;21.698;2024-03-23T04:07:56;34.50;;;20.50;;
50309;SDS011;36207;51.850;21.698;2024-03-23T04:10:21;32.70;;;20.30;;
50309;SDS011;36207;51.850;21.698;2024-03-23T04:12:47;31.90;;;20.30;;
50309;SDS011;36207;51.850;21.698;2024-03-23T04:15:14;34.70;;;20.50;;
50309;SDS011;36207;51.850;21.698;2024-03-23T04:17:40;36.10;;;21.00;;
50309;SDS011;36207;51.850;21.698;2024-03-23T04:20:08;35.20;;;21.60;;
50309;SDS011;36207;51.850;21.698;2024-03-23T04:22:37;34.60;;;20.80;;
50309;SDS011;36207;51.850;21.698;2024-03-23T04:25:03;36.90;;;21.20;;
50309;SDS011;36207;51.850;21.698;2024-03-23T04:27:35;35.60;;;20.60;;
50309;SDS011;36207;51.850;21.698;2024-03-23T04:30:01;38.20;;;21.10;;
50309;SDS011;36207;51.850;21.698;2024-03-23T04:32:28;34.40;;;20.50;;
50309;SDS011;36207;51.850;21.698;2024-03-23T04:34:54;35.00;;;20.80;;
50309;SDS011;36207;51.850;21.698;2024-03-23T04:37:20;35.70;;;20.80;;
50309;SDS011;36207;51.850;21.698;2024-03-23T04:39:47;34.80;;;20.80;;
50309;SDS011;36207;51.850;21.698;2024-03-23T04:42:14;36.90;;;21.20;;
50309;SDS011;36207;51.850;21.698;2024-03-23T04:44:41;37.10;;;21.20;;
50309;SDS011;36207;51.850;21.698;2024-03-23T04:47:07;35.90;;;20.70;;
50309;SDS011;36207;51.850;21.698;2024-03-23T04:49:33;34.90;;;21.10;;
50309;SDS011;36207;51.850;21.698;2024-03-23T04:52:05;38.50;;;20.50;;
50309;SDS011;36207;51.850;21.698;2024-03-23T04:54:31;33.40;;;20.80;;
50309;SDS011;36207;51.850;21.698;2024-03-23T04:57:00;34.70;;;20.30;;
50309;SDS011;36207;51.850;21.698;2024-03-23T04:59:26;34.20;;;20.70;;
50309;SDS011;36207;51.850;21.698;2024-03-23T05:01:52;34.80;;;20.30;;
50309;SDS011;36207;51.850;21.698;2024-03-23T05:04:18;36.00;;;20.60;;
50309;SDS011;36207;51.850;21.698;2024-03-23T05:06:44;32.40;;;19.50;;
50309;SDS011;36207;51.850;21.698;2024-03-23T05:09:09;35.00;;;20.10;;
50309;SDS011;36207;51.850;21.698;2024-03-23T05:11:37;35.70;;;21.00;;
50309;SDS011;36207;51.850;21.698;2024-03-23T05:14:04;33.50;;;19.60;;
50309;SDS011;36207;51.850;21.698;2024-03-23T05:16:30;33.20;;;19.80;;
50309;SDS011;36207;51.850;21.698;2024-03-23T05:18:56;37.30;;;20.30;;
50309;SDS011;36207;51.850;21.698;2024-03-23T05:21:22;31.40;;;19.10;;
50309;SDS011;36207;51.850;21.698;2024-03-23T05:23:47;33.50;;;19.90;;
50309;SDS011;36207;51.850;21.698;2024-03-23T05:26:14;32.20;;;19.60;;
50309;SDS011;36207;51.850;21.698;2024-03-23T05:28:40;33.80;;;19.60;;
50309;SDS011;36207;51.850;21.698;2024-03-23T05:31:06;31.40;;;19.00;;
50309;SDS011;36207;51.850;21.698;2024-03-23T05:33:32;36.20;;;19.50;;
50309;SDS011;36207;51.850;21.698;2024-03-23T05:35:58;32.40;;;19.30;;
50309;SDS011;36207;51.850;21.698;2024-03-23T05:38:26;32.00;;;18.60;;
50309;SDS011;36207;51.850;21.698;2024-03-23T05:40:57;35.30;;;19.00;;
50309;SDS011;36207;51.850;21.698;2024-03-23T05:43:24;31.80;;;18.90;;
50309;SDS011;36207;51.850;21.698;2024-03-23T05:45:57;35.60;;;19.70;;
50309;SDS011;36207;51.850;21.698;2024-03-23T05:48:24;33.20;;;18.60;;
50309;SDS011;36207;51.850;21.698;2024-03-23T05:50:51;32.60;;;20.00;;
50309;SDS011;36207;51.850;21.698;2024-03-23T05:53:18;32.30;;;18.40;;
50309;SDS011;36207;51.850;21.698;2024-03-23T05:55:47;33.80;;;19.50;;
50309;SDS011;36207;51.850;21.698;2024-03-23T05:58:17;33.70;;;20.00;;
50309;SDS011;36207;51.850;21.698;2024-03-23T06:00:44;32.90;;;18.70;;
50309;SDS011;36207;51.850;21.698;2024-03-23T06:03:10;33.30;;;19.50;;
50309;SDS011;36207;51.850;21.698;2024-03-23T06:05:37;32.60;;;19.00;;
50309;SDS011;36207;51.850;21.698;2024-03-23T06:08:03;33.30;;;19.20;;
50309;SDS011;36207;51.850;21.698;2024-03-23T06:10:30;33.10;;;19.50;;
50309;SDS011;36207;51.850;21.698;2024-03-23T06:12:57;34.40;;;19.30;;
50309;SDS011;36207;51.850;21.698;2024-03-23T06:15:24;36.80;;;19.70;;
50309;SDS011;36207;51.850;21.698;2024-03-23T06:17:50;32.50;;;18.00;;
50309;SDS011;36207;51.850;21.698;2024-03-23T06:20:16;32.90;;;18.50;;
50309;SDS011;36207;51.850;21.698;2024-03-23T06:22:42;31.90;;;17.90;;
50309;SDS011;36207;51.850;21.698;2024-03-23T06:25:09;31.10;;;17.80;;
50309;SDS011;36207;51.850;21.698;2024-03-23T06:27:34;33.20;;;17.70;;
50309;SDS011;36207;51.850;21.698;2024-03-23T06:30:00;31.20;;;17.40;;
50309;SDS011;36207;51.850;21.698;2024-03-23T06:32:27;32.40;;;17.50;;
50309;SDS011;36207;51.850;21.698;2024-03-23T06:34:54;35.40;;;17.90;;
50309;SDS011;36207;51.850;21.698;2024-03-23T06:37:20;33.60;;;17.90;;
50309;SDS011;36207;51.850;21.698;2024-03-23T06:39:46;30.10;;;17.50;;
50309;SDS011;36207;51.850;21.698;2024-03-23T06:42:12;31.10;;;18.00;;
50309;SDS011;36207;51.850;21.698;2024-03-23T06:44:38;37.60;;;20.90;;
50309;SDS011;36207;51.850;21.698;2024-03-23T06:47:05;28.30;;;16.30;;
50309;SDS011;36207;51.850;21.698;2024-03-23T06:49:31;30.30;;;16.40;;
50309;SDS011;36207;51.850;21.698;2024-03-23T06:51:59;39.90;;;24.10;;
50309;SDS011;36207;51.850;21.698;2024-03-23T06:54:26;28.30;;;15.60;;
50309;SDS011;36207;51.850;21.698;2024-03-23T06:56:52;32.80;;;16.50;;
50309;SDS011;36207;51.850;21.698;2024-03-23T06:59:18;38.90;;;21.10;;
50309;SDS011;36207;51.850;21.698;2024-03-23T07:01:43;61.20;;;32.60;;
50309;SDS011;36207;51.850;21.698;2024-03-23T07:04:09;28.50;;;15.70;;
50309;SDS011;36207;51.850;21.698;2024-03-23T07:06:42;28.90;;;15.20;;
50309;SDS011;36207;51.850;21.698;2024-03-23T07:09:09;28.40;;;15.30;;
50309;SDS011;36207;51.850;21.698;2024-03-23T07:11:35;29.40;;;16.70;;
50309;SDS011;36207;51.850;21.698;2024-03-23T07:14:01;25.80;;;14.40;;
50309;SDS011;36207;51.850;21.698;2024-03-23T07:16:31;28.00;;;15.50;;
50309;SDS011;36207;51.850;21.698;2024-03-23T07:18:57;30.70;;;15.40;;
50309;SDS011;36207;51.850;21.698;2024-03-23T07:21:22;26.40;;;15.30;;
50309;SDS011;36207;51.850;21.698;2024-03-23T07:23:48;26.20;;;15.40;;
50309;SDS011;36207;51.850;21.698;2024-03-23T07:26:14;24.60;;;15.20;;
50309;SDS011;36207;51.850;21.698;2024-03-23T07:28:40;28.00;;;15.20;;
50309;SDS011;36207;51.850;21.698;2024-03-23T07:31:12;28.10;;;14.70;;
50309;SDS011;36207;51.850;21.698;2024-03-23T07:33:43;27.40;;;15.40;;
50309;SDS011;36207;51.850;21.698;2024-03-23T07:36:09;24.90;;;14.00;;
50309;SDS011;36207;51.850;21.698;2024-03-23T07:38:36;25.50;;;14.60;;
50309;SDS011;36207;51.850;21.698;2024-03-23T07:41:05;26.10;;;14.80;;
50309;SDS011;36207;51.850;21.698;2024-03-23T07:43:32;23.10;;;14.60;;
50309;SDS011;36207;51.850;21.698;2024-03-23T07:45:59;23.70;;;14.20;;
50309;SDS011;36207;51.850;21.698;2024-03-23T07:48:26;22.60;;;14.00;;
50309;SDS011;36207;51.850;21.698;2024-03-23T07:53:30;24.70;;;14.20;;
50309;SDS011;36207;51.850;21.698;2024-03-23T07:55:58;25.30;;;13.90;;
50309;SDS011;36207;51.850;21.698;2024-03-23T07:58:25;27.70;;;14.50;;
50309;SDS011;36207;51.850;21.698;2024-03-23T08:00:55;24.90;;;13.90;;
50309;SDS011;36207;51.850;21.698;2024-03-23T08:03:21;24.80;;;13.60;;
50309;SDS011;36207;51.850;21.698;2024-03-23T08:05:48;25.20;;;14.00;;
50309;SDS011;36207;51.850;21.698;2024-03-23T08:08:14;22.50;;;13.70;;
50309;SDS011;36207;51.850;21.698;2024-03-23T08:10:50;24.20;;;14.40;;
50309;SDS011;36207;51.850;21.698;2024-03-23T08:13:17;24.20;;;14.20;;
50309;SDS011;36207;51.850;21.698;2024-03-23T08:15:44;25.90;;;14.50;;
50309;SDS011;36207;51.850;21.698;2024-03-23T08:18:13;25.00;;;14.20;;
50309;SDS011;36207;51.850;21.698;2024-03-23T08:20:41;24.00;;;14.80;;
50309;SDS011;36207;51.850;21.698;2024-03-23T08:23:07;20.90;;;13.30;;
50309;SDS011;36207;51.850;21.698;2024-03-23T08:25:34;22.70;;;13.40;;
50309;SDS011;36207;51.850;21.698;2024-03-23T08:28:00;22.80;;;12.80;;
50309;SDS011;36207;51.850;21.698;2024-03-23T08:30:27;22.80;;;13.70;;
50309;SDS011;36207;51.850;21.698;2024-03-23T08:32:53;20.90;;;13.10;;
50309;SDS011;36207;51.850;21.698;2024-03-23T08:35:19;21.50;;;12.90;;
50309;SDS011;36207;51.850;21.698;2024-03-23T08:37:45;20.70;;;13.80;;
50309;SDS011;36207;51.850;21.698;2024-03-23T08:40:12;21.80;;;13.30;;
50309;SDS011;36207;51.850;21.698;2024-03-23T08:42:38;23.10;;;14.50;;
50309;SDS011;36207;51.850;21.698;2024-03-23T08:45:04;19.90;;;12.70;;
50309;SDS011;36207;51.850;21.698;2024-03-23T08:47:36;19.60;;;12.30;;
50309;SDS011;36207;51.850;21.698;2024-03-23T08:50:02;19.80;;;12.40;;
50309;SDS011;36207;51.850;21.698;2024-03-23T08:52:28;21.70;;;12.40;;
50309;SDS011;36207;51.850;21.698;2024-03-23T08:54:55;20.80;;;13.50;;
50309;SDS011;36207;51.850;21.698;2024-03-23T08:57:22;22.10;;;12.80;;
50309;SDS011;36207;51.850;21.698;2024-03-23T08:59:49;19.20;;;13.00;;
50309;SDS011;36207;51.850;21.698;2024-03-23T09:02:15;19.50;;;12.80;;
50309;SDS011;36207;51.850;21.698;2024-03-23T09:04:41;19.10;;;12.60;;
50309;SDS011;36207;51.850;21.698;2024-03-23T09:07:07;22.90;;;14.10;;
50309;SDS011;36207;51.850;21.698;2024-03-23T09:09:33;23.40;;;13.30;;
50309;SDS011;36207;51.850;21.698;2024-03-23T09:11:59;21.20;;;12.40;;
50309;SDS011;36207;51.850;21.698;2024-03-23T09:14:25;21.30;;;12.80;;
50309;SDS011;36207;51.850;21.698;2024-03-23T09:16:51;21.40;;;12.80;;
50309;SDS011;36207;51.850;21.698;2024-03-23T09:19:17;21.50;;;13.40;;
50309;SDS011;36207;51.850;21.698;2024-03-23T09:21:43;21.10;;;13.40;;
50309;SDS011;36207;51.850;21.698;2024-03-23T09:24:09;20.90;;;13.40;;
50309;SDS011;36207;51.850;21.698;2024-03-23T09:26:35;22.60;;;14.00;;
50309;SDS011;36207;51.850;21.698;2024-03-23T09:29:01;22.40;;;13.30;;
50309;SDS011;36207;51.850;21.698;2024-03-23T09:31:26;22.80;;;14.40;;
50309;SDS011;36207;51.850;21.698;2024-03-23T09:33:52;23.20;;;14.30;;
50309;SDS011;36207;51.850;21.698;2024-03-23T09:36:18;26.40;;;14.20;;
50309;SDS011;36207;51.850;21.698;2024-03-23T09:38:44;23.70;;;14.80;;
50309;SDS011;36207;51.850;21.698;2024-03-23T09:41:10;24.70;;;15.10;;
50309;SDS011;36207;51.850;21.698;2024-03-23T09:43:37;23.30;;;14.10;;
50309;SDS011;36207;51.850;21.698;2024-03-23T09:46:03;24.60;;;15.20;;
50309;SDS011;36207;51.850;21.698;2024-03-23T09:48:29;26.80;;;14.90;;
50309;SDS011;36207;51.850;21.698;2024-03-23T09:50:56;26.50;;;15.30;;
50309;SDS011;36207;51.850;21.698;2024-03-23T09:53:22;24.70;;;14.80;;
50309;SDS011;36207;51.850;21.698;2024-03-23T09:55:48;27.70;;;14.90;;
50309;SDS011;36207;51.850;21.698;2024-03-23T09:58:15;25.30;;;14.50;;
50309;SDS011;36207;51.850;21.698;2024-03-23T10:00:42;25.00;;;14.30;;
50309;SDS011;36207;51.850;21.698;2024-03-23T10:03:09;26.10;;;15.20;;
50309;SDS011;36207;51.850;21.698;2024-03-23T10:05:37;25.50;;;15.70;;
50309;SDS011;36207;51.850;21.698;2024-03-23T10:10:38;23.60;;;14.60;;
50309;SDS011;36207;51.850;21.698;2024-03-23T10:13:04;27.80;;;15.90;;
50309;SDS011;36207;51.850;21.698;2024-03-23T10:15:30;26.20;;;15.10;;
50309;SDS011;36207;51.850;21.698;2024-03-23T10:18:06;24.80;;;15.10;;
50309;SDS011;36207;51.850;21.698;2024-03-23T10:20:46;26.50;;;15.10;;
50309;SDS011;36207;51.850;21.698;2024-03-23T10:23:17;27.60;;;16.20;;
50309;SDS011;36207;51.850;21.698;2024-03-23T10:25:43;24.80;;;15.10;;
50309;SDS011;36207;51.850;21.698;2024-03-23T10:28:09;24.10;;;14.90;;
50309;SDS011;36207;51.850;21.698;2024-03-23T10:30:37;24.20;;;15.90;;
50309;SDS011;36207;51.850;21.698;2024-03-23T10:33:12;30.20;;;16.80;;
50309;SDS011;36207;51.850;21.698;2024-03-23T10:35:39;25.20;;;15.50;;
50309;SDS011;36207;51.850;21.698;2024-03-23T10:38:05;24.80;;;16.10;;
50309;SDS011;36207;51.850;21.698;2024-03-23T10:40:36;28.10;;;16.60;;
50309;SDS011;36207;51.850;21.698;2024-03-23T10:43:05;24.50;;;15.50;;
50309;SDS011;36207;51.850;21.698;2024-03-23T10:45:33;25.70;;;15.70;;
50309;SDS011;36207;51.850;21.698;2024-03-23T10:47:59;32.30;;;19.90;;
50309;SDS011;36207;51.850;21.698;2024-03-23T10:50:26;41.50;;;22.40;;
50309;SDS011;36207;51.850;21.698;2024-03-23T10:52:53;27.10;;;16.50;;
50309;SDS011;36207;51.850;21.698;2024-03-23T10:55:20;25.50;;;15.20;;
50309;SDS011;36207;51.850;21.698;2024-03-23T10:57:50;24.00;;;15.60;;
50309;SDS011;36207;51.850;21.698;2024-03-23T11:00:19;22.30;;;15.00;;
50309;SDS011;36207;51.850;21.698;2024-03-23T11:02:47;23.00;;;14.60;;
50309;SDS011;36207;51.850;21.698;2024-03-23T11:05:28;21.80;;;14.70;;
50309;SDS011;36207;51.850;21.698;2024-03-23T11:07:54;25.60;;;15.70;;
50309;SDS011;36207;51.850;21.698;2024-03-23T11:10:27;23.60;;;14.80;;
50309;SDS011;36207;51.850;21.698;2024-03-23T11:12:58;20.10;;;13.30;;
50309;SDS011;36207;51.850;21.698;2024-03-23T11:15:44;26.50;;;15.10;;
50309;SDS011;36207;51.850;21.698;2024-03-23T11:18:09;20.20;;;13.30;;
50309;SDS011;36207;51.850;21.698;2024-03-23T11:20:37;20.60;;;13.90;;
50309;SDS011;36207;51.850;21.698;2024-03-23T11:23:04;20.10;;;12.90;;
50309;SDS011;36207;51.850;21.698;2024-03-23T11:25:30;20.10;;;12.80;;
50309;SDS011;36207;51.850;21.698;2024-03-23T11:28:11;20.80;;;13.20;;
50309;SDS011;36207;51.850;21.698;2024-03-23T11:30:38;21.70;;;12.80;;
50309;SDS011;36207;51.850;21.698;2024-03-23T11:33:04;20.70;;;12.80;;
50309;SDS011;36207;51.850;21.698;2024-03-23T11:35:31;17.70;;;11.60;;
50309;SDS011;36207;51.850;21.698;2024-03-23T11:38:04;18.30;;;12.20;;
50309;SDS011;36207;51.850;21.698;2024-03-23T11:40:32;17.20;;;11.70;;
50309;SDS011;36207;51.850;21.698;2024-03-23T11:43:10;19.50;;;12.50;;
50309;SDS011;36207;51.850;21.698;2024-03-23T11:45:39;19.80;;;12.00;;
50309;SDS011;36207;51.850;21.698;2024-03-23T11:48:11;19.60;;;11.80;;
50309;SDS011;36207;51.850;21.698;2024-03-23T11:50:39;19.90;;;12.60;;
50309;SDS011;36207;51.850;21.698;2024-03-23T11:55:50;18.20;;;11.10;;
50309;SDS011;36207;51.850;21.698;2024-03-23T11:58:24;16.60;;;10.80;;
50309;SDS011;36207;51.850;21.698;2024-03-23T12:01:03;16.70;;;10.70;;
50309;SDS011;36207;51.850;21.698;2024-03-23T12:03:31;15.90;;;10.30;;
50309;SDS011;36207;51.850;21.698;2024-03-23T12:06:02;16.30;;;10.60;;
50309;SDS011;36207;51.850;21.698;2024-03-23T12:11:05;16.70;;;10.40;;
50309;SDS011;36207;51.850;21.698;2024-03-23T12:13:32;14.20;;;10.00;;
50309;SDS011;36207;51.850;21.698;2024-03-23T12:18:42;15.30;;;10.30;;
50309;SDS011;36207;51.850;21.698;2024-03-23T12:21:10;17.30;;;10.10;;
50309;SDS011;36207;51.850;21.698;2024-03-23T12:23:40;13.40;;;8.90;;
50309;SDS011;36207;51.850;21.698;2024-03-23T12:26:07;13.70;;;9.00;;
50309;SDS011;36207;51.850;21.698;2024-03-23T12:28:33;14.10;;;9.70;;
50309;SDS011;36207;51.850;21.698;2024-03-23T12:30:59;13.30;;;8.50;;
50309;SDS011;36207;51.850;21.698;2024-03-23T12:33:25;14.50;;;9.30;;
50309;SDS011;36207;51.850;21.698;2024-03-23T12:35:51;14.00;;;8.40;;
50309;SDS011;36207;51.850;21.698;2024-03-23T12:38:17;11.90;;;8.10;;
50309;SDS011;36207;51.850;21.698;2024-03-23T12:40:46;14.80;;;9.30;;
50309;SDS011;36207;51.850;21.698;2024-03-23T12:43:13;17.00;;;9.10;;
50309;SDS011;36207;51.850;21.698;2024-03-23T12:45:40;13.20;;;8.40;;
50309;SDS011;36207;51.850;21.698;2024-03-23T12:48:06;13.00;;;8.40;;
50309;SDS011;36207;51.850;21.698;2024-03-23T12:50:32;12.90;;;8.90;;
50309;SDS011;36207;51.850;21.698;2024-03-23T12:52:58;12.40;;;8.60;;
50309;SDS011;36207;51.850;21.698;2024-03-23T12:55:24;13.70;;;8.60;;
50309;SDS011;36207;51.850;21.698;2024-03-23T12:57:50;15.00;;;9.10;;
50309;SDS011;36207;51.850;21.698;2024-03-23T13:00:16;14.60;;;9.20;;
50309;SDS011;36207;51.850;21.698;2024-03-23T13:02:42;15.20;;;8.40;;
50309;SDS011;36207;51.850;21.698;2024-03-23T13:05:08;15.70;;;10.60;;
50309;SDS011;36207;51.850;21.698;2024-03-23T13:07:34;14.10;;;8.80;;
50309;SDS011;36207;51.850;21.698;2024-03-23T13:10:01;14.10;;;9.50;;
50309;SDS011;36207;51.850;21.698;2024-03-23T13:12:27;14.60;;;11.10;;
50309;SDS011;36207;51.850;21.698;2024-03-23T13:14:53;12.40;;;8.70;;
50309;SDS011;36207;51.850;21.698;2024-03-23T13:17:19;13.20;;;8.10;;
50309;SDS011;36207;51.850;21.698;2024-03-23T13:19:45;11.70;;;7.60;;
50309;SDS011;36207;51.850;21.698;2024-03-23T13:22:11;17.60;;;12.40;;
50309;SDS011;36207;51.850;21.698;2024-03-23T13:24:37;15.20;;;10.70;;
50309;SDS011;36207;51.850;21.698;2024-03-23T13:27:04;13.60;;;8.60;;
50309;SDS011;36207;51.850;21.698;2024-03-23T13:29:34;19.60;;;11.70;;
50309;SDS011;36207;51.850;21.698;2024-03-23T13:32:01;14.70;;;9.20;;
50309;SDS011;36207;51.850;21.698;2024-03-23T13:34:27;11.90;;;8.20;;
50309;SDS011;36207;51.850;21.698;2024-03-23T13:36:55;12.20;;;8.90;;
50309;SDS011;36207;51.850;21.698;2024-03-23T13:39:24;13.90;;;8.60;;
50309;SDS011;36207;51.850;21.698;2024-03-23T13:41:51;16.20;;;8.40;;
50309;SDS011;36207;51.850;21.698;2024-03-23T13:44:17;12.10;;;7.80;;
50309;SDS011;36207;51.850;21.698;2024-03-23T13:46:43;11.90;;;8.10;;
50309;SDS011;36207;51.850;21.698;2024-03-23T13:51:54;14.20;;;8.40;;
50309;SDS011;36207;51.850;21.698;2024-03-23T13:54:22;11.70;;;8.00;;
50309;SDS011;36207;51.850;21.698;2024-03-23T13:56:50;12.70;;;8.50;;
50309;SDS011;36207;51.850;21.698;2024-03-23T13:59:20;12.40;;;8.70;;
50309;SDS011;36207;51.850;21.698;2024-03-23T14:01:48;12.90;;;8.40;;
50309;SDS011;36207;51.850;21.698;2024-03-23T14:04:16;11.00;;;8.30;;
50309;SDS011;36207;51.850;21.698;2024-03-23T14:06:43;14.20;;;9.00;;
50309;SDS011;36207;51.850;21.698;2024-03-23T14:09:12;15.00;;;9.80;;
50309;SDS011;36207;51.850;21.698;2024-03-23T14:11:40;13.90;;;9.30;;
50309;SDS011;36207;51.850;21.698;2024-03-23T14:14:09;15.00;;;9.50;;
50309;SDS011;36207;51.850;21.698;2024-03-23T14:16:35;17.30;;;10.10;;
50309;SDS011;36207;51.850;21.698;2024-03-23T14:19:01;15.50;;;10.30;;
50309;SDS011;36207;51.850;21.698;2024-03-23T14:21:27;16.70;;;10.80;;
50309;SDS011;36207;51.850;21.698;2024-03-23T14:23:53;16.60;;;10.80;;
50309;SDS011;36207;51.850;21.698;2024-03-23T14:26:20;16.10;;;11.00;;
50309;SDS011;36207;51.850;21.698;2024-03-23T14:28:46;18.40;;;11.00;;
50309;SDS011;36207;51.850;21.698;2024-03-23T14:31:14;16.00;;;10.80;;
50309;SDS011;36207;51.850;21.698;2024-03-23T14:33:40;14.10;;;10.30;;
50309;SDS011;36207;51.850;21.698;2024-03-23T14:36:14;13.90;;;10.20;;
50309;SDS011;36207;51.850;21.698;2024-03-23T14:38:42;15.90;;;9.40;;
50309;SDS011;36207;51.850;21.698;2024-03-23T14:41:08;18.20;;;10.90;;
50309;SDS011;36207;51.850;21.698;2024-03-23T14:43:33;19.00;;;12.00;;
50309;SDS011;36207;51.850;21.698;2024-03-23T14:46:06;18.00;;;12.30;;
50309;SDS011;36207;51.850;21.698;2024-03-23T14:48:35;18.50;;;12.60;;
50309;SDS011;36207;51.850;21.698;2024-03-23T14:51:02;19.10;;;13.40;;
50309;SDS011;36207;51.850;21.698;2024-03-23T14:53:32;18.80;;;13.10;;
50309;SDS011;36207;51.850;21.698;2024-03-23T14:56:00;21.30;;;12.20;;
50309;SDS011;36207;51.850;21.698;2024-03-23T14:58:28;17.60;;;11.50;;
50309;SDS011;36207;51.850;21.698;2024-03-23T15:01:02;15.80;;;11.30;;
50309;SDS011;36207;51.850;21.698;2024-03-23T15:03:28;17.20;;;12.50;;
50309;SDS011;36207;51.850;21.698;2024-03-23T15:05:56;17.00;;;11.90;;
50309;SDS011;36207;51.850;21.698;2024-03-23T15:08:23;16.90;;;11.50;;
50309;SDS011;36207;51.850;21.698;2024-03-23T15:10:49;17.80;;;12.70;;
50309;SDS011;36207;51.850;21.698;2024-03-23T15:13:15;17.50;;;12.70;;
50309;SDS011;36207;51.850;21.698;2024-03-23T15:15:42;19.30;;;13.00;;
50309;SDS011;36207;51.850;21.698;2024-03-23T15:18:13;20.00;;;12.30;;
50309;SDS011;36207;51.850;21.698;2024-03-23T15:20:52;17.90;;;12.90;;